Arvada, Wyoming
Current Conditions -  °F | °C
As of 10:53 AM on Thursday 29 Jan 2015 (Local Time) from KBYG Reporting Station
Clear Clear  
Wind Chill: 37°   Ceiling: Unl
Heat Index: 42°   Visibility: 10mi
Dew Point: 29°   Wind: 8mph
Humidity: 60%   Direction: 140°SE
Pressure: 30.42"   Gusts: NA
Location:  44.65°N, 106.13°W
Report Text: KBYG 291753Z AUTO 14007KT 10SM CLR 06/M02 A3042 RMK AO2 SLP314 T00561017 10056 21033 58004
Loading
Personal Weather Stations






























Interactive Weather Map New forecast layout! Learn more

10-Day Weather Forecast

Advertisements
Track Severe Weather on mobile